createdAt,value
2022-11-17T00:00:30.189Z,96656.94
2022-11-17T00:02:57.079Z,96661.66
2022-11-17T00:05:24.182Z,96657.97
2022-11-17T00:07:51.194Z,96654.44
2022-11-17T00:10:18.402Z,96646.22
2022-11-17T00:13:14.268Z,96650.56
2022-11-17T00:15:43.735Z,96651.31
2022-11-17T00:18:29.102Z,96656.84
2022-11-17T00:21:14.723Z,96666.16
2022-11-17T00:23:47.926Z,96661.91
2022-11-17T00:26:16.639Z,96653.13
2022-11-17T00:28:44.030Z,96657.94
2022-11-17T00:31:33.241Z,96651.88
2022-11-17T00:34:06.912Z,96647.87
2022-11-17T00:36:34.932Z,96644.72
2022-11-17T00:39:02.187Z,96638.56
2022-11-17T00:41:29.038Z,96636.78
2022-11-17T00:43:55.881Z,96640.56
2022-11-17T00:46:23.141Z,96636.06
2022-11-17T00:48:50.219Z,96649.09
2022-11-17T00:51:17.129Z,96645.91
2022-11-17T00:53:44.026Z,96637.00
2022-11-17T00:56:11.094Z,96647.69
2022-11-17T00:58:38.168Z,96640.75
2022-11-17T01:01:05.341Z,96644.38
2022-11-17T01:03:32.410Z,96646.41
2022-11-17T01:06:08.385Z,96643.88
2022-11-17T01:08:35.635Z,96639.28
2022-11-17T01:11:14.638Z,96638.53
2022-11-17T01:13:42.593Z,96635.03
2022-11-17T01:16:15.761Z,96635.66
2022-11-17T01:18:43.834Z,96642.22
2022-11-17T01:21:19.299Z,96645.25
2022-11-17T01:23:47.458Z,96647.75
2022-11-17T01:26:16.652Z,96646.63
2022-11-17T01:28:43.861Z,96635.53
2022-11-17T01:31:15.797Z,96640.91
2022-11-17T01:33:42.842Z,96639.66
2022-11-17T01:36:23.210Z,96643.88
2022-11-17T01:38:50.284Z,96638.69
2022-11-17T01:41:27.401Z,96631.06
2022-11-17T01:43:59.632Z,96620.12
2022-11-17T01:46:39.016Z,96618.88
2022-11-17T01:49:10.344Z,96614.19
2022-11-17T01:51:40.985Z,96613.16
2022-11-17T01:54:09.400Z,96611.13
2022-11-17T01:56:40.303Z,96608.41
2022-11-17T01:59:10.624Z,96621.41
2022-11-17T02:01:55.852Z,96610.78
2022-11-17T02:04:28.445Z,96606.41
2022-11-17T02:07:16.130Z,96611.06
2022-11-17T02:09:44.168Z,96610.75
2022-11-17T02:12:13.232Z,96602.59
2022-11-17T02:14:40.533Z,96597.53
2022-11-17T02:17:13.783Z,96602.81
2022-11-17T02:19:42.697Z,96602.19
2022-11-17T02:22:28.197Z,96597.25
2022-11-17T02:25:25.722Z,96581.50
2022-11-17T02:28:17.585Z,96571.09
2022-11-17T02:31:04.110Z,96573.09
2022-11-17T02:33:37.994Z,96555.97
2022-11-17T02:36:31.542Z,96555.41
2022-11-17T02:39:12.221Z,96554.72
2022-11-17T02:41:50.859Z,96548.72
2022-11-17T02:44:37.920Z,96542.69
2022-11-17T02:47:05.419Z,96549.19
2022-11-17T02:49:43.333Z,96546.38
2022-11-17T02:52:10.227Z,96538.53
2022-11-17T02:54:37.122Z,96539.28
2022-11-17T02:57:04.052Z,96545.84
2022-11-17T02:59:47.102Z,96562.50
2022-11-17T03:02:25.947Z,96578.72
2022-11-17T03:05:34.713Z,96583.53
2022-11-17T03:08:33.355Z,96578.59
2022-11-17T03:11:04.945Z,96583.28
2022-11-17T03:13:51.961Z,96584.38
2022-11-17T03:16:24.807Z,96579.25
2022-11-17T03:19:14.111Z,96581.28
2022-11-17T03:21:40.940Z,96583.72
2022-11-17T03:24:18.592Z,96575.62
2022-11-17T03:26:53.458Z,96574.19
2022-11-17T03:29:22.019Z,96576.44
2022-11-17T03:31:51.376Z,96574.00
2022-11-17T03:34:21.357Z,96579.25
2022-11-17T03:36:52.955Z,96575.66
2022-11-17T03:39:26.459Z,96578.53
2022-11-17T03:41:59.096Z,96575.06
2022-11-17T03:44:27.624Z,96579.25
2022-11-17T03:46:56.028Z,96586.34
2022-11-17T03:49:35.538Z,96589.25
2022-11-17T03:52:02.498Z,96586.91
2022-11-17T03:54:29.396Z,96589.72
2022-11-17T03:57:07.389Z,96592.56
2022-11-17T03:59:54.307Z,96587.25
2022-11-17T04:02:22.548Z,96584.16
2022-11-17T04:05:07.464Z,96580.16
2022-11-17T04:07:44.780Z,96574.47
2022-11-17T04:10:15.587Z,96582.06
2022-11-17T04:13:01.371Z,96581.47
2022-11-17T04:15:47.224Z,96586.66
2022-11-17T04:18:14.549Z,96583.12
2022-11-17T04:20:42.000Z,96589.16
2022-11-17T04:23:12.283Z,96584.31
2022-11-17T04:26:02.633Z,96592.72
2022-11-17T04:28:37.066Z,96580.69
2022-11-17T04:31:09.055Z,96588.50
2022-11-17T04:33:36.922Z,96592.50
2022-11-17T04:36:04.843Z,96585.75
2022-11-17T04:38:31.741Z,96590.94
2022-11-17T04:41:22.611Z,96583.06
2022-11-17T04:43:49.494Z,96579.13
2022-11-17T04:46:17.363Z,96577.28
2022-11-17T04:48:44.453Z,96573.28
2022-11-17T04:51:12.004Z,96574.81
2022-11-17T04:53:39.102Z,96588.28
2022-11-17T04:56:06.828Z,96582.41
2022-11-17T04:58:33.758Z,96587.56
2022-11-17T05:01:12.631Z,96596.06
2022-11-17T05:03:40.372Z,96600.28
2022-11-17T05:06:07.802Z,96594.87
2022-11-17T05:08:37.100Z,96598.41
2022-11-17T05:11:23.309Z,96601.00
2022-11-17T05:13:51.349Z,96605.94
2022-11-17T05:16:37.874Z,96599.16
2022-11-17T05:19:05.902Z,96604.81
2022-11-17T05:21:33.196Z,96610.94
2022-11-17T05:24:00.115Z,96598.16
2022-11-17T05:26:29.136Z,96606.03
2022-11-17T05:28:57.648Z,96610.44
2022-11-17T05:31:25.700Z,96608.94
2022-11-17T05:33:53.415Z,96614.81
2022-11-17T05:36:20.837Z,96617.78
2022-11-17T05:38:48.542Z,96618.97
2022-11-17T05:41:16.372Z,96624.22
2022-11-17T05:43:43.990Z,96621.56
2022-11-17T05:46:11.181Z,96622.06
2022-11-17T05:48:38.185Z,96625.66
2022-11-17T05:51:05.394Z,96633.00
2022-11-17T05:53:32.678Z,96631.09
2022-11-17T05:56:41.221Z,96638.06
2022-11-17T05:59:22.057Z,96643.38
2022-11-17T06:02:03.575Z,96647.84
2022-11-17T06:04:31.003Z,96654.78
2022-11-17T06:06:59.484Z,96658.22
2022-11-17T06:09:33.492Z,96664.00
2022-11-17T06:12:05.607Z,96661.91
2022-11-17T06:14:34.372Z,96666.28
2022-11-17T06:17:06.535Z,96669.19
2022-11-17T06:19:42.168Z,96676.63
2022-11-17T06:22:13.547Z,96681.56
2022-11-17T06:24:42.321Z,96674.81
2022-11-17T06:27:11.019Z,96682.50
2022-11-17T06:29:43.688Z,96682.38
2022-11-17T06:32:12.410Z,96686.03
2022-11-17T06:34:39.316Z,96681.31
2022-11-17T06:37:06.156Z,96683.09
2022-11-17T06:39:33.118Z,96687.06
2022-11-17T06:41:59.967Z,96685.50
2022-11-17T06:44:26.815Z,96689.72
2022-11-17T06:46:53.666Z,96689.75
2022-11-17T06:49:20.551Z,96692.37
2022-11-17T06:51:47.400Z,96688.81
2022-11-17T06:54:15.055Z,96689.12
2022-11-17T06:56:42.582Z,96684.66
2022-11-17T06:59:09.581Z,96695.59
2022-11-17T07:01:37.876Z,96691.81
2022-11-17T07:04:05.163Z,96700.28
2022-11-17T07:06:32.414Z,96696.84
2022-11-17T07:08:59.413Z,96692.16
2022-11-17T07:11:26.399Z,96696.28
2022-11-17T07:13:53.354Z,96704.19
2022-11-17T07:16:23.877Z,96709.13
2022-11-17T07:18:52.559Z,96697.66
2022-11-17T07:21:19.501Z,96702.28
2022-11-17T07:23:46.896Z,96697.84
2022-11-17T07:26:14.524Z,96702.84
2022-11-17T07:28:41.587Z,96697.94
2022-11-17T07:31:09.476Z,96694.50
2022-11-17T07:33:37.100Z,96700.81
2022-11-17T07:36:09.897Z,96693.47
2022-11-17T07:38:38.748Z,96695.94
2022-11-17T07:41:07.276Z,96695.09
2022-11-17T07:43:35.271Z,96697.22
2022-11-17T07:46:07.243Z,96693.00
2022-11-17T07:48:34.678Z,96689.81
2022-11-17T07:51:03.493Z,96684.97
2022-11-17T07:53:31.852Z,96682.94
2022-11-17T07:56:03.826Z,96674.59
2022-11-17T07:58:31.074Z,96668.56
2022-11-17T08:00:58.079Z,96659.09
2022-11-17T08:03:25.077Z,96663.91
2022-11-17T08:05:53.585Z,96662.87
2022-11-17T08:08:20.494Z,96671.75
2022-11-17T08:10:47.446Z,96684.38
2022-11-17T08:13:15.691Z,96680.50
2022-11-17T08:15:42.593Z,96693.06
2022-11-17T08:18:09.499Z,96691.50
2022-11-17T08:20:37.463Z,96684.63
2022-11-17T08:23:04.409Z,96688.47
2022-11-17T08:25:31.342Z,96683.66
2022-11-17T08:27:58.634Z,96690.19
2022-11-17T08:30:44.582Z,96691.00
2022-11-17T08:33:11.521Z,96700.47
2022-11-17T08:35:38.460Z,96692.94
2022-11-17T08:38:05.513Z,96693.50
2022-11-17T08:40:43.730Z,96691.59
2022-11-17T08:43:11.118Z,96690.69
2022-11-17T08:45:38.263Z,96692.28
2022-11-17T08:48:07.626Z,96689.41
2022-11-17T08:57:17.577Z,96686.72
2022-11-17T08:59:47.677Z,96686.72
2022-11-17T09:02:14.851Z,96686.37
2022-11-17T09:04:41.873Z,96681.47
2022-11-17T09:07:08.991Z,96689.06
2022-11-17T09:09:37.026Z,96692.16
2022-11-17T09:12:04.115Z,96696.28
2022-11-17T09:14:31.775Z,96694.53
2022-11-17T09:16:58.717Z,96687.34
2022-11-17T09:19:44.256Z,96681.53
2022-11-17T09:22:11.227Z,96675.06
2022-11-17T09:24:38.473Z,96680.94
2022-11-17T09:27:05.481Z,96680.63
2022-11-17T09:29:32.424Z,96664.59
2022-11-17T09:31:59.278Z,96684.13
2022-11-17T09:34:26.284Z,96692.28
2022-11-17T09:36:53.285Z,96690.69
2022-11-17T09:39:22.432Z,96688.78
2022-11-17T09:41:51.487Z,96684.94
2022-11-17T09:44:42.234Z,96678.81
2022-11-17T09:47:33.019Z,96682.03
2022-11-17T09:50:13.912Z,96679.50
2022-11-17T09:53:09.833Z,96681.97
2022-11-17T10:01:04.406Z,96689.41
2022-11-17T10:03:33.122Z,96682.25
2022-11-17T10:06:02.075Z,96681.38
2022-11-17T10:08:35.090Z,96673.50
2022-11-17T10:11:21.907Z,96661.09
2022-11-17T10:13:49.884Z,96657.03
2022-11-17T10:16:16.783Z,96657.19
2022-11-17T10:18:43.727Z,96655.59
2022-11-17T10:21:10.735Z,96647.81
2022-11-17T10:23:46.192Z,96642.22
2022-11-17T10:26:15.219Z,96636.94
2022-11-17T10:28:42.251Z,96633.13
2022-11-17T10:31:15.342Z,96641.03
2022-11-17T10:33:44.543Z,96647.16
2022-11-17T10:36:21.801Z,96652.00
2022-11-17T10:38:54.349Z,96651.38
2022-11-17T10:41:25.557Z,96650.25
2022-11-17T10:44:06.856Z,96642.53
2022-11-17T10:46:45.033Z,96640.97
2022-11-17T10:49:34.468Z,96650.38
2022-11-17T10:52:11.968Z,96639.47
2022-11-17T10:54:38.967Z,96636.91
2022-11-17T10:57:25.681Z,96642.44
2022-11-17T10:59:56.912Z,96639.16
2022-11-17T11:02:37.897Z,96649.09
2022-11-17T11:05:08.265Z,96646.63
2022-11-17T11:07:35.613Z,96645.03
2022-11-17T11:10:08.685Z,96647.66
2022-11-17T11:12:54.232Z,96650.38
2022-11-17T11:15:25.674Z,96641.06
2022-11-17T11:17:52.559Z,96644.72
2022-11-17T11:20:22.800Z,96640.13
2022-11-17T11:22:52.956Z,96637.00
2022-11-17T11:25:37.013Z,96639.56
2022-11-17T11:28:12.054Z,96626.53
2022-11-17T11:30:47.729Z,96637.78
2022-11-17T11:33:17.497Z,96643.97
2022-11-17T11:36:15.277Z,96629.97
2022-11-17T11:38:53.014Z,96626.41
2022-11-17T11:41:42.872Z,96637.78
2022-11-17T11:44:33.847Z,96636.62
2022-11-17T11:47:36.199Z,96626.47
2022-11-17T11:50:13.163Z,96632.81
2022-11-17T11:52:44.984Z,96634.66
2022-11-17T11:55:31.279Z,96644.62
2022-11-17T11:58:01.074Z,96643.47
2022-11-17T12:00:27.980Z,96645.88
2022-11-17T12:03:20.816Z,96649.00
2022-11-17T12:05:59.952Z,96642.78
2022-11-17T12:08:36.519Z,96644.81
2022-11-17T12:11:27.510Z,96639.91
2022-11-17T12:13:54.793Z,96644.44
2022-11-17T12:16:47.984Z,96632.75
2022-11-17T12:19:57.289Z,96627.03
2022-11-17T12:22:30.092Z,96633.13
2022-11-17T12:25:17.241Z,96637.97
2022-11-17T12:27:49.942Z,96641.03
2022-11-17T12:30:57.390Z,96640.84
2022-11-17T12:33:24.777Z,96645.28
2022-11-17T12:36:37.532Z,96641.06
2022-11-17T12:39:08.803Z,96643.72
2022-11-17T12:42:00.153Z,96637.25
2022-11-17T12:44:39.553Z,96635.81
2022-11-17T12:47:22.345Z,96640.72
2022-11-17T12:50:07.506Z,96634.66
2022-11-17T12:52:43.779Z,96634.19
2022-11-17T12:55:22.827Z,96631.97
2022-11-17T12:57:58.521Z,96642.81
2022-11-17T13:00:28.139Z,96635.88
2022-11-17T13:03:05.355Z,96646.72
2022-11-17T13:05:32.050Z,96639.31
2022-11-17T13:08:25.454Z,96640.28
2022-11-17T13:11:03.914Z,96655.78
2022-11-17T13:13:30.837Z,96655.66
2022-11-17T13:16:00.177Z,96653.66
2022-11-17T13:18:33.111Z,96648.97
2022-11-17T13:21:01.208Z,96656.69
2022-11-17T13:23:30.403Z,96652.84
2022-11-17T13:26:10.596Z,96659.19
2022-11-17T13:28:37.975Z,96653.69
2022-11-17T13:31:04.933Z,96647.56
2022-11-17T13:33:38.432Z,96658.81
2022-11-17T13:36:15.267Z,96654.84
2022-11-17T13:38:54.885Z,96658.19
2022-11-17T13:41:22.781Z,96660.13
2022-11-17T13:43:50.690Z,96654.03
2022-11-17T13:46:18.353Z,96655.03
2022-11-17T13:48:49.718Z,96664.59
2022-11-17T13:51:22.954Z,96655.97
2022-11-17T13:53:59.698Z,96664.72
2022-11-17T13:56:31.341Z,96656.09
2022-11-17T13:59:01.231Z,96664.75
2022-11-17T14:01:29.670Z,96658.00
2022-11-17T14:04:20.208Z,96665.66
2022-11-17T14:07:01.885Z,96663.88
2022-11-17T14:09:31.121Z,96654.22
2022-11-17T14:11:58.727Z,96660.13
2022-11-17T14:14:33.503Z,96668.72
2022-11-17T14:17:18.278Z,96677.66
2022-11-17T14:23:13.838Z,96657.97
2022-11-17T14:25:43.269Z,96660.53
2022-11-17T14:28:21.595Z,96656.72
2022-11-17T14:30:55.973Z,96651.12
2022-11-17T14:33:23.712Z,96659.75
2022-11-17T14:35:53.881Z,96669.34
2022-11-17T14:38:21.245Z,96680.63
2022-11-17T14:40:52.659Z,96664.25
2022-11-17T14:43:21.081Z,96675.00
2022-11-17T14:45:48.936Z,96681.56
2022-11-17T14:48:19.432Z,96678.91
2022-11-17T14:50:47.214Z,96668.38
2022-11-17T14:53:14.215Z,96659.97
2022-11-17T14:55:41.124Z,96661.22
2022-11-17T14:58:10.034Z,96662.44
2022-11-17T15:00:37.157Z,96659.38
2022-11-17T15:03:04.170Z,96661.84
2022-11-17T15:05:31.168Z,96683.88
2022-11-17T15:07:58.089Z,96689.84
2022-11-17T15:10:25.026Z,96690.50
2022-11-17T15:12:51.975Z,96688.22
2022-11-17T15:15:19.000Z,96682.31
2022-11-17T15:17:45.921Z,96676.19
2022-11-17T15:20:12.886Z,96678.87
2022-11-17T15:22:39.794Z,96683.03
2022-11-17T15:25:08.135Z,96682.16
2022-11-17T15:27:35.009Z,96686.13
2022-11-17T15:30:02.241Z,96677.87
2022-11-17T15:32:29.185Z,96678.37
2022-11-17T15:34:56.103Z,96675.56
2022-11-17T15:37:23.018Z,96674.66
2022-11-17T15:39:49.929Z,96685.75
2022-11-17T15:42:16.856Z,96689.84
2022-11-17T15:44:43.820Z,96687.28
2022-11-17T15:47:10.771Z,96669.97
2022-11-17T15:49:37.643Z,96668.59
2022-11-17T15:52:04.672Z,96654.47
2022-11-17T15:54:31.572Z,96660.84
2022-11-17T15:57:00.715Z,96662.25
2022-11-17T15:59:27.588Z,96648.88
2022-11-17T16:01:54.508Z,96644.78
2022-11-17T16:04:21.813Z,96644.62
2022-11-17T16:06:49.011Z,96654.09
2022-11-17T16:09:16.704Z,96663.75
2022-11-17T16:11:43.984Z,96676.75
2022-11-17T16:14:11.883Z,96686.28
2022-11-17T16:16:39.352Z,96681.00
2022-11-17T16:19:06.693Z,96683.28
2022-11-17T16:21:33.959Z,96687.28
2022-11-17T16:24:02.441Z,96695.06
2022-11-17T16:26:30.188Z,96696.97
2022-11-17T16:28:58.776Z,96700.72
2022-11-17T16:31:30.878Z,96701.34
2022-11-17T16:34:00.108Z,96707.44
2022-11-17T16:36:36.316Z,96714.59
2022-11-17T16:39:05.678Z,96716.63
2022-11-17T16:41:37.378Z,96720.75
2022-11-17T16:44:08.793Z,96712.91
2022-11-17T16:46:36.215Z,96699.59
2022-11-17T16:49:05.979Z,96704.66
2022-11-17T16:51:33.328Z,96717.31
2022-11-17T16:54:03.060Z,96724.37
2022-11-17T16:56:30.286Z,96724.06
2022-11-17T16:58:57.598Z,96724.37
2022-11-17T17:01:30.606Z,96720.06
2022-11-17T17:04:01.681Z,96706.31
2022-11-17T17:06:29.612Z,96706.31
2022-11-17T17:08:58.054Z,96705.78
2022-11-17T17:11:25.190Z,96701.94
2022-11-17T17:13:52.248Z,96705.94
2022-11-17T17:16:20.072Z,96704.66
2022-11-17T17:18:47.007Z,96712.84
2022-11-17T17:21:17.387Z,96721.81
2022-11-17T17:23:45.816Z,96712.28
2022-11-17T17:26:16.850Z,96705.63
2022-11-17T17:28:44.915Z,96707.41
2022-11-17T17:31:21.073Z,96708.22
2022-11-17T17:33:50.407Z,96700.63
2022-11-17T17:36:22.433Z,96693.25
2022-11-17T17:38:55.346Z,96699.75
2022-11-17T17:41:26.247Z,96698.38
2022-11-17T17:44:03.774Z,96701.56
2022-11-17T17:46:32.114Z,96688.56
2022-11-17T17:48:59.165Z,96694.00
2022-11-17T17:51:27.865Z,96699.91
2022-11-17T17:53:56.130Z,96700.59
2022-11-17T17:56:23.713Z,96700.78
2022-11-17T17:58:51.994Z,96702.41
2022-11-17T18:01:23.185Z,96712.09
2022-11-17T18:03:51.791Z,96711.34
2022-11-17T18:06:21.151Z,96713.22
2022-11-17T18:08:50.535Z,96719.53
2022-11-17T18:11:20.688Z,96724.47
2022-11-17T18:13:49.328Z,96711.38
2022-11-17T18:16:22.121Z,96713.53
2022-11-17T18:18:49.426Z,96717.91
2022-11-17T18:21:20.198Z,96711.97
2022-11-17T18:23:47.164Z,96706.84
2022-11-17T18:26:20.360Z,96701.84
2022-11-17T18:29:07.756Z,96696.66
2022-11-17T18:31:36.505Z,96695.94
2022-11-17T18:34:09.243Z,96699.94
2022-11-17T18:36:36.265Z,96704.59
2022-11-17T18:39:03.770Z,96696.94
2022-11-17T18:41:32.369Z,96699.38
2022-11-17T18:43:59.295Z,96702.25
2022-11-17T18:46:28.891Z,96700.47
2022-11-17T18:48:56.886Z,96695.72
2022-11-17T18:51:29.268Z,96687.56
2022-11-17T18:53:57.902Z,96689.47
2022-11-17T18:56:32.051Z,96691.81
2022-11-17T18:58:59.506Z,96692.00
2022-11-17T19:01:30.486Z,96695.38
2022-11-17T19:04:00.905Z,96696.44
2022-11-17T19:06:28.749Z,96690.53
2022-11-17T19:08:57.595Z,96681.84
2022-11-17T19:11:24.571Z,96671.53
2022-11-17T19:13:52.428Z,96684.94
2022-11-17T19:16:22.168Z,96694.09
2022-11-17T19:18:52.553Z,96696.22
2022-11-17T19:21:26.651Z,96704.25
2022-11-17T19:23:55.116Z,96709.56
2022-11-17T19:26:26.790Z,96709.41
2022-11-17T19:28:58.248Z,96708.41
2022-11-17T19:31:25.812Z,96703.00
2022-11-17T19:33:53.537Z,96702.47
2022-11-17T19:36:22.714Z,96684.13
2022-11-17T19:38:51.171Z,96685.19
2022-11-17T19:41:25.588Z,96679.75
2022-11-17T19:43:56.876Z,96673.00
2022-11-17T19:46:25.271Z,96679.09
2022-11-17T19:48:52.525Z,96669.56
2022-11-17T19:51:27.260Z,96671.53
2022-11-17T19:53:56.195Z,96673.03
2022-11-17T19:56:24.378Z,96674.19
2022-11-17T19:58:52.181Z,96675.59
2022-11-17T20:01:21.307Z,96693.81
2022-11-17T20:03:48.740Z,96689.50
2022-11-17T20:06:18.099Z,96685.41
2022-11-17T20:08:45.338Z,96686.72
2022-11-17T20:11:14.861Z,96690.88
2022-11-17T20:13:41.861Z,96693.63
2022-11-17T20:16:15.253Z,96679.63
2022-11-17T20:18:43.526Z,96687.28
2022-11-17T20:21:11.317Z,96688.28
2022-11-17T20:23:39.463Z,96698.13
2022-11-17T20:26:08.798Z,96703.41
2022-11-17T20:28:36.643Z,96701.31
2022-11-17T20:31:17.285Z,96701.81
2022-11-17T20:33:44.271Z,96698.75
2022-11-17T20:36:19.593Z,96696.00
2022-11-17T20:39:07.053Z,96694.50
2022-11-17T20:41:34.594Z,96689.81
2022-11-17T20:44:03.329Z,96692.50
2022-11-17T20:46:30.422Z,96697.94
2022-11-17T20:48:57.327Z,96686.94
2022-11-17T20:51:25.398Z,96694.34
2022-11-17T20:53:52.663Z,96696.47
2022-11-17T20:56:20.243Z,96694.31
2022-11-17T20:58:47.246Z,96690.03
2022-11-17T21:01:16.560Z,96693.72
2022-11-17T21:03:44.203Z,96700.63
2022-11-17T21:06:11.579Z,96701.53
2022-11-17T21:08:40.027Z,96698.00
2022-11-17T21:11:09.763Z,96691.44
2022-11-17T21:13:37.683Z,96692.84
2022-11-17T21:16:12.582Z,96695.31
2022-11-17T21:18:45.226Z,96692.28
2022-11-17T21:21:12.629Z,96680.81
2022-11-17T21:23:40.552Z,96695.78
2022-11-17T21:26:13.103Z,96691.75
2022-11-17T21:28:41.121Z,96695.06
2022-11-17T21:31:12.059Z,96685.06
2022-11-17T21:33:39.602Z,96673.00
2022-11-17T21:36:15.924Z,96669.13
2022-11-17T21:38:43.809Z,96667.59
2022-11-17T21:41:32.610Z,96662.84
2022-11-17T21:44:01.107Z,96645.03
2022-11-17T21:46:30.121Z,96648.63
2022-11-17T21:48:58.194Z,96636.53
2022-11-17T21:51:28.203Z,96632.78
2022-11-17T21:53:57.664Z,96632.44
2022-11-17T21:56:27.056Z,96634.59
2022-11-17T21:59:01.104Z,96633.84
2022-11-17T22:01:29.105Z,96628.25
2022-11-17T22:03:56.244Z,96619.38
2022-11-17T22:06:24.092Z,96606.12
2022-11-17T22:08:51.370Z,96607.41
2022-11-17T22:11:35.600Z,96607.44
2022-11-17T22:14:11.967Z,96601.63
2022-11-17T22:16:43.653Z,96596.09
2022-11-17T22:19:11.468Z,96596.97
2022-11-17T22:21:38.992Z,96594.09
2022-11-17T22:24:07.977Z,96600.66
2022-11-17T22:26:38.636Z,96594.22
2022-11-17T22:29:08.700Z,96585.19
2022-11-17T22:31:35.594Z,96589.72
2022-11-17T22:34:02.888Z,96581.94
2022-11-17T22:36:29.821Z,96585.13
2022-11-17T22:38:56.730Z,96582.06
2022-11-17T22:41:23.931Z,96584.34
2022-11-17T22:43:52.066Z,96591.72
2022-11-17T22:46:19.983Z,96588.38
2022-11-17T22:48:47.463Z,96584.19
2022-11-17T22:51:34.750Z,96578.31
2022-11-17T22:54:01.693Z,96574.69
2022-11-17T22:56:28.570Z,96581.03
2022-11-17T22:58:59.487Z,96572.38
2022-11-17T23:01:26.508Z,96576.97
2022-11-17T23:03:53.522Z,96575.72
2022-11-17T23:06:20.556Z,96579.06
2022-11-17T23:08:47.486Z,96579.72
2022-11-17T23:11:36.105Z,96577.66
2022-11-17T23:14:01.653Z,96577.63
2022-11-17T23:16:28.589Z,96583.00
2022-11-17T23:18:56.551Z,96578.28
2022-11-17T23:21:23.781Z,96577.75
2022-11-17T23:23:51.142Z,96584.47
2022-11-17T23:26:18.286Z,96583.84
2022-11-17T23:28:45.512Z,96593.56
2022-11-17T23:31:16.325Z,96589.00
2022-11-17T23:33:45.378Z,96593.72
2022-11-17T23:36:17.127Z,96597.03
2022-11-17T23:38:44.474Z,96597.09
2022-11-17T23:41:13.446Z,96596.91
2022-11-17T23:43:40.894Z,96595.19
2022-11-17T23:46:11.644Z,96598.66
2022-11-17T23:48:38.595Z,96592.59
2022-11-17T23:51:07.605Z,96590.22
2022-11-17T23:53:34.978Z,96587.34
2022-11-17T23:56:02.386Z,96590.16
2022-11-17T23:58:29.608Z,96595.81
